createdAt,value
2023-11-23T00:00:16.859Z,4.51
2023-11-23T00:01:19.081Z,4.40
2023-11-23T00:02:20.920Z,4.31
2023-11-23T00:03:22.834Z,4.25
2023-11-23T00:04:24.767Z,4.24
2023-11-23T00:05:27.106Z,4.28
2023-11-23T00:06:28.865Z,4.25
2023-11-23T00:07:32.578Z,4.21
2023-11-23T00:08:35.634Z,4.24
2023-11-23T00:09:37.522Z,4.29
2023-11-23T00:10:39.340Z,4.35
2023-11-23T00:11:41.499Z,4.40
2023-11-23T00:12:43.441Z,4.46
2023-11-23T00:13:45.297Z,4.51
2023-11-23T00:14:47.049Z,4.54
2023-11-23T00:15:48.889Z,4.58
2023-11-23T00:16:50.705Z,4.61
2023-11-23T00:17:53.711Z,4.64
2023-11-23T00:18:55.742Z,4.64
2023-11-23T00:19:57.945Z,4.56
2023-11-23T00:20:59.946Z,4.55
2023-11-23T00:22:02.361Z,4.56
2023-11-23T00:23:04.080Z,4.60
2023-11-23T00:24:06.487Z,4.61
2023-11-23T00:25:13.453Z,4.63
2023-11-23T00:26:15.369Z,4.64
2023-11-23T00:27:17.290Z,4.64
2023-11-23T00:28:20.138Z,4.62
2023-11-23T00:29:21.987Z,4.60
2023-11-23T00:30:23.791Z,4.55
2023-11-23T00:31:25.640Z,4.47
2023-11-23T00:32:27.432Z,4.42
2023-11-23T00:33:29.956Z,4.39
2023-11-23T00:34:31.882Z,4.38
2023-11-23T00:35:33.653Z,4.37
2023-11-23T00:36:41.291Z,4.38
2023-11-23T00:37:43.180Z,4.43
2023-11-23T00:38:45.162Z,4.45
2023-11-23T00:39:47.023Z,4.50
2023-11-23T00:40:48.740Z,4.54
2023-11-23T00:41:50.706Z,4.52
2023-11-23T00:42:52.505Z,4.49
2023-11-23T00:43:54.496Z,4.52
2023-11-23T00:44:57.372Z,4.55
2023-11-23T00:45:59.328Z,4.56
2023-11-23T00:47:01.432Z,4.58
2023-11-23T00:48:03.850Z,4.58
2023-11-23T00:49:06.449Z,4.60
2023-11-23T00:50:08.900Z,4.65
2023-11-23T00:51:10.791Z,4.67
2023-11-23T00:52:12.726Z,4.68
2023-11-23T00:53:14.563Z,4.66
2023-11-23T00:54:17.305Z,4.66
2023-11-23T00:55:19.226Z,4.66
2023-11-23T00:56:21.273Z,4.63
2023-11-23T00:57:23.123Z,4.65
2023-11-23T00:58:25.567Z,4.65
2023-11-23T00:59:27.563Z,4.65
2023-11-23T01:00:30.599Z,4.67
2023-11-23T01:01:32.645Z,4.69
2023-11-23T01:02:35.237Z,4.71
2023-11-23T01:03:37.479Z,4.72
2023-11-23T01:04:39.463Z,4.66
2023-11-23T01:05:45.454Z,4.56
2023-11-23T01:06:47.469Z,4.50
2023-11-23T01:07:49.633Z,4.47
2023-11-23T01:08:51.551Z,4.46
2023-11-23T01:09:53.398Z,4.43
2023-11-23T01:10:55.224Z,4.38
2023-11-23T01:11:58.236Z,4.37
2023-11-23T01:13:00.363Z,4.39
2023-11-23T01:14:02.485Z,4.38
2023-11-23T01:15:05.086Z,4.38
2023-11-23T01:16:07.454Z,4.35
2023-11-23T01:17:09.307Z,4.34
2023-11-23T01:18:11.482Z,4.33
2023-11-23T01:19:14.095Z,4.30
2023-11-23T01:20:16.489Z,4.28
2023-11-23T01:21:18.469Z,4.26
2023-11-23T01:22:20.419Z,4.26
2023-11-23T01:23:22.283Z,4.25
2023-11-23T01:24:24.191Z,4.29
2023-11-23T01:25:26.091Z,4.28
2023-11-23T01:26:27.944Z,4.28
2023-11-23T01:27:29.770Z,4.30
2023-11-23T01:28:32.413Z,4.31
2023-11-23T01:29:34.326Z,4.33
2023-11-23T01:30:36.255Z,4.31
2023-11-23T01:31:38.194Z,4.27
2023-11-23T01:32:40.260Z,4.23
2023-11-23T01:33:42.338Z,4.24
2023-11-23T01:34:44.244Z,4.20
2023-11-23T01:35:46.259Z,4.23
2023-11-23T01:36:48.285Z,4.27
2023-11-23T01:37:50.674Z,4.29
2023-11-23T01:38:52.900Z,4.31
2023-11-23T01:39:54.729Z,4.36
2023-11-23T01:40:56.922Z,4.34
2023-11-23T01:41:58.860Z,4.34
2023-11-23T01:43:07.798Z,4.34
2023-11-23T01:44:09.626Z,4.34
2023-11-23T01:45:11.767Z,4.34
2023-11-23T01:46:14.094Z,4.34
2023-11-23T01:47:16.778Z,4.34
2023-11-23T01:48:20.996Z,4.33
2023-11-23T01:49:24.694Z,4.25
2023-11-23T01:50:27.110Z,4.22
2023-11-23T01:51:29.829Z,4.23
2023-11-23T01:52:32.242Z,4.23
2023-11-23T01:53:34.316Z,4.26
2023-11-23T01:54:36.300Z,4.29
2023-11-23T01:55:38.471Z,4.30
2023-11-23T01:56:41.604Z,4.33
2023-11-23T01:57:44.994Z,4.37
2023-11-23T01:58:46.910Z,4.39
2023-11-23T01:59:49.062Z,4.37
2023-11-23T02:00:52.536Z,4.37
2023-11-23T02:01:55.597Z,4.37
2023-11-23T02:02:58.080Z,4.36
2023-11-23T02:04:00.068Z,4.33
2023-11-23T02:05:05.381Z,4.29
2023-11-23T02:06:07.910Z,4.24
2023-11-23T02:07:10.037Z,4.15
2023-11-23T02:08:12.366Z,4.16
2023-11-23T02:09:14.543Z,3.97
2023-11-23T02:10:16.519Z,3.92
2023-11-23T02:11:18.483Z,3.86
2023-11-23T02:12:22.100Z,3.75
2023-11-23T02:13:24.487Z,3.59
2023-11-23T02:14:26.794Z,3.63
2023-11-23T02:15:28.811Z,3.69
2023-11-23T02:16:30.954Z,3.71
2023-11-23T02:17:32.867Z,3.78
2023-11-23T02:18:39.128Z,3.84
2023-11-23T02:19:41.032Z,3.90
2023-11-23T02:20:46.176Z,3.95
2023-11-23T02:21:48.091Z,4.00
2023-11-23T02:22:50.374Z,3.98
2023-11-23T02:23:52.586Z,4.03
2023-11-23T02:24:54.416Z,4.06
2023-11-23T02:25:56.595Z,4.05
2023-11-23T02:26:58.962Z,4.03
2023-11-23T02:28:00.825Z,4.00
2023-11-23T02:29:02.766Z,3.91
2023-11-23T02:30:07.507Z,3.85
2023-11-23T02:31:09.519Z,3.81
2023-11-23T02:32:11.879Z,3.90
2023-11-23T02:33:15.649Z,3.91
2023-11-23T02:34:17.583Z,3.95
2023-11-23T02:35:20.945Z,3.98
2023-11-23T02:36:23.633Z,3.98
2023-11-23T02:37:25.465Z,3.94
2023-11-23T02:38:27.943Z,3.90
2023-11-23T02:39:30.604Z,3.95
2023-11-23T02:40:32.545Z,3.88
2023-11-23T02:41:34.507Z,3.89
2023-11-23T02:42:36.519Z,3.94
2023-11-23T02:43:38.401Z,4.00
2023-11-23T02:44:40.208Z,4.03
2023-11-23T02:45:43.499Z,4.08
2023-11-23T02:46:45.465Z,4.12
2023-11-23T02:47:47.411Z,4.16
2023-11-23T02:48:49.576Z,4.18
2023-11-23T02:49:51.547Z,4.19
2023-11-23T02:50:53.408Z,4.17
2023-11-23T02:51:55.497Z,4.18
2023-11-23T02:52:57.418Z,4.21
2023-11-23T02:53:59.260Z,4.17
2023-11-23T02:55:01.192Z,4.13
2023-11-23T02:56:03.135Z,4.10
2023-11-23T02:57:05.982Z,4.03
2023-11-23T02:58:07.935Z,3.98
2023-11-23T02:59:09.888Z,3.99
2023-11-23T03:00:13.703Z,4.05
2023-11-23T03:01:15.836Z,4.10
2023-11-23T03:02:17.793Z,4.13
2023-11-23T03:03:20.369Z,4.16
2023-11-23T03:04:22.337Z,4.19
2023-11-23T03:05:24.374Z,4.21
2023-11-23T03:06:27.920Z,4.24
2023-11-23T03:07:29.863Z,4.27
2023-11-23T03:08:32.328Z,4.24
2023-11-23T03:09:34.368Z,4.24
2023-11-23T03:10:36.196Z,4.25
2023-11-23T03:11:38.036Z,4.25
2023-11-23T03:12:40.011Z,4.27
2023-11-23T03:13:42.491Z,4.24
2023-11-23T03:14:45.288Z,4.24
2023-11-23T03:15:47.154Z,4.26
2023-11-23T03:16:49.963Z,4.23
2023-11-23T03:17:51.956Z,4.20
2023-11-23T03:18:54.007Z,4.22
2023-11-23T03:19:56.635Z,4.26
2023-11-23T03:20:58.727Z,4.28
2023-11-23T03:22:00.962Z,4.32
2023-11-23T03:23:02.973Z,4.25
2023-11-23T03:24:05.204Z,4.14
2023-11-23T03:25:07.390Z,4.09
2023-11-23T03:26:09.316Z,4.07
2023-11-23T03:27:11.146Z,4.12
2023-11-23T03:28:14.055Z,4.05
2023-11-23T03:29:16.321Z,4.03
2023-11-23T03:30:18.724Z,4.08
2023-11-23T03:31:22.311Z,4.09
2023-11-23T03:32:26.696Z,4.11
2023-11-23T03:33:29.160Z,4.09
2023-11-23T03:34:31.384Z,4.09
2023-11-23T03:35:33.290Z,4.09
2023-11-23T03:36:35.154Z,4.13
2023-11-23T03:37:37.093Z,4.07
2023-11-23T03:38:39.128Z,4.02
2023-11-23T03:39:41.425Z,3.95
2023-11-23T03:40:43.447Z,3.91
2023-11-23T03:41:45.365Z,3.78
2023-11-23T03:42:47.211Z,3.79
2023-11-23T03:43:49.178Z,3.78
2023-11-23T03:44:51.616Z,3.71
2023-11-23T03:45:53.900Z,3.66
2023-11-23T03:46:55.918Z,3.67
2023-11-23T03:47:59.495Z,3.69
2023-11-23T03:49:01.575Z,3.70
2023-11-23T03:50:03.470Z,3.74
2023-11-23T03:51:05.493Z,3.77
2023-11-23T03:52:07.400Z,3.84
2023-11-23T03:53:09.202Z,3.92
2023-11-23T03:54:11.271Z,3.97
2023-11-23T03:55:13.392Z,4.00
2023-11-23T03:56:18.031Z,3.95
2023-11-23T03:57:20.406Z,3.88
2023-11-23T03:58:22.270Z,3.90
2023-11-23T03:59:24.494Z,3.92
2023-11-23T04:00:29.352Z,3.98
2023-11-23T04:01:32.620Z,4.02
2023-11-23T04:02:35.610Z,4.05
2023-11-23T04:03:40.731Z,4.04
2023-11-23T04:04:42.750Z,4.04
2023-11-23T04:05:44.686Z,4.06
2023-11-23T04:06:47.146Z,4.07
2023-11-23T04:07:49.138Z,4.04
2023-11-23T04:08:51.122Z,4.02
2023-11-23T04:09:53.075Z,4.00
2023-11-23T04:10:54.882Z,3.98
2023-11-23T04:11:56.828Z,4.03
2023-11-23T04:12:58.843Z,4.04
2023-11-23T04:14:00.735Z,3.99
2023-11-23T04:15:02.894Z,3.98
2023-11-23T04:16:04.951Z,4.01
2023-11-23T04:17:06.770Z,4.05
2023-11-23T04:18:08.735Z,4.09
2023-11-23T04:19:10.592Z,4.10
2023-11-23T04:20:12.613Z,4.05
2023-11-23T04:21:15.120Z,4.03
2023-11-23T04:22:18.020Z,3.98
2023-11-23T04:23:20.007Z,4.03
2023-11-23T04:24:22.021Z,4.08
2023-11-23T04:25:23.977Z,4.09
2023-11-23T04:26:25.857Z,4.12
2023-11-23T04:27:27.868Z,4.16
2023-11-23T04:28:30.492Z,4.16
2023-11-23T04:29:32.444Z,4.15
2023-11-23T04:30:34.480Z,4.15
2023-11-23T04:31:36.550Z,4.13
2023-11-23T04:32:38.395Z,4.17
2023-11-23T04:33:40.413Z,4.20
2023-11-23T04:34:42.797Z,4.21
2023-11-23T04:35:44.763Z,4.19
2023-11-23T04:36:46.764Z,4.20
2023-11-23T04:37:48.741Z,4.19
2023-11-23T04:38:50.725Z,4.19
2023-11-23T04:39:53.048Z,4.16
2023-11-23T04:40:54.958Z,4.10
2023-11-23T04:41:57.432Z,4.05
2023-11-23T04:42:59.320Z,4.07
2023-11-23T04:44:01.992Z,4.11
2023-11-23T04:45:04.667Z,4.11
2023-11-23T04:46:06.801Z,4.06
2023-11-23T04:47:08.751Z,4.05
2023-11-23T04:48:11.117Z,4.06
2023-11-23T04:49:13.000Z,4.08
2023-11-23T04:50:14.974Z,4.11
2023-11-23T04:51:17.745Z,4.08
2023-11-23T04:52:19.632Z,4.08
2023-11-23T04:53:21.476Z,4.06
2023-11-23T04:54:23.353Z,4.08
2023-11-23T04:55:25.636Z,4.12
2023-11-23T04:56:27.660Z,4.07
2023-11-23T04:57:29.450Z,4.05
2023-11-23T04:58:31.207Z,4.08
2023-11-23T04:59:33.034Z,4.10
2023-11-23T05:00:37.173Z,4.08
2023-11-23T05:01:39.558Z,4.04
2023-11-23T05:02:44.848Z,4.03
2023-11-23T05:03:47.955Z,4.03
2023-11-23T05:04:50.002Z,4.04
2023-11-23T05:05:51.899Z,4.04
2023-11-23T05:06:53.848Z,4.03
2023-11-23T05:07:55.626Z,4.00
2023-11-23T05:08:57.493Z,3.90
2023-11-23T05:09:59.250Z,3.88
2023-11-23T05:11:01.196Z,3.91
2023-11-23T05:12:03.132Z,3.88
2023-11-23T05:13:05.308Z,3.80
2023-11-23T05:14:08.557Z,3.80
2023-11-23T05:15:11.505Z,3.83
2023-11-23T05:16:13.277Z,3.83
2023-11-23T05:17:14.983Z,3.81
2023-11-23T05:18:17.349Z,3.71
2023-11-23T05:19:31.737Z,3.71
2023-11-23T05:20:41.863Z,3.74
2023-11-23T05:21:43.668Z,3.76
2023-11-23T05:22:47.393Z,3.78
2023-11-23T05:23:49.327Z,3.79
2023-11-23T05:24:51.136Z,3.74
2023-11-23T05:25:53.390Z,3.68
2023-11-23T05:26:57.304Z,3.70
2023-11-23T05:27:59.029Z,3.64
2023-11-23T05:29:00.899Z,3.64
2023-11-23T05:30:02.885Z,3.51
2023-11-23T05:31:05.018Z,3.50
2023-11-23T05:32:07.372Z,3.56
2023-11-23T05:33:09.854Z,3.63
2023-11-23T05:34:11.678Z,3.68
2023-11-23T05:35:14.318Z,3.72
2023-11-23T05:36:16.728Z,3.70
2023-11-23T05:37:18.507Z,3.69
2023-11-23T05:38:20.310Z,3.74
2023-11-23T05:39:22.137Z,3.81
2023-11-23T05:40:24.008Z,3.84
2023-11-23T05:41:25.833Z,3.84
2023-11-23T05:42:31.834Z,3.84
2023-11-23T05:43:33.719Z,3.76
2023-11-23T05:44:35.399Z,3.68
2023-11-23T05:45:37.162Z,3.71
2023-11-23T05:46:39.037Z,3.74
2023-11-23T05:47:41.012Z,3.76
2023-11-23T05:48:42.953Z,3.78
2023-11-23T05:49:44.804Z,3.72
2023-11-23T05:50:46.557Z,3.63
2023-11-23T05:51:51.561Z,3.50
2023-11-23T05:52:53.347Z,3.36
2023-11-23T05:53:55.175Z,3.32
2023-11-23T05:54:57.426Z,3.24
2023-11-23T05:55:59.516Z,3.28
2023-11-23T05:57:01.270Z,3.35
2023-11-23T05:58:03.191Z,3.32
2023-11-23T05:59:05.231Z,3.32
2023-11-23T06:00:07.889Z,3.32
2023-11-23T06:01:12.419Z,3.31
2023-11-23T06:02:14.623Z,3.25
2023-11-23T06:03:16.528Z,3.28
2023-11-23T06:04:18.832Z,3.25
2023-11-23T06:05:21.335Z,3.13
2023-11-23T06:06:24.214Z,3.04
2023-11-23T06:07:26.034Z,3.09
2023-11-23T06:08:28.441Z,3.01
2023-11-23T06:09:31.474Z,3.02
2023-11-23T06:10:36.017Z,3.10
2023-11-23T06:11:37.758Z,3.14
2023-11-23T06:12:39.592Z,3.19
2023-11-23T06:13:43.035Z,3.25
2023-11-23T06:14:45.752Z,3.29
2023-11-23T06:15:47.546Z,3.37
2023-11-23T06:16:49.258Z,3.44
2023-11-23T06:18:01.701Z,3.48
2023-11-23T06:19:10.900Z,3.49
2023-11-23T06:20:14.081Z,3.48
2023-11-23T06:21:15.935Z,3.49
2023-11-23T06:22:17.660Z,3.44
2023-11-23T06:23:19.577Z,3.45
2023-11-23T06:24:21.517Z,3.47
2023-11-23T06:25:24.679Z,3.45
2023-11-23T06:26:27.981Z,3.46
2023-11-23T06:27:31.888Z,3.48
2023-11-23T06:28:33.748Z,3.50
2023-11-23T06:29:35.480Z,3.47
2023-11-23T06:30:37.249Z,3.42
2023-11-23T06:31:39.087Z,3.43
2023-11-23T06:32:41.005Z,3.47
2023-11-23T06:33:42.845Z,3.44
2023-11-23T06:34:45.288Z,3.42
2023-11-23T06:35:47.086Z,3.44
2023-11-23T06:36:51.752Z,3.44
2023-11-23T06:37:54.260Z,3.45
2023-11-23T06:38:56.795Z,3.28
2023-11-23T06:39:58.736Z,3.26
2023-11-23T06:41:01.244Z,3.19
2023-11-23T06:42:03.192Z,3.23
2023-11-23T06:43:05.232Z,3.26
2023-11-23T06:44:07.636Z,3.23
2023-11-23T06:45:10.238Z,3.18
2023-11-23T06:46:11.972Z,3.23
2023-11-23T06:47:13.663Z,3.26
2023-11-23T06:48:15.539Z,3.29
2023-11-23T06:49:17.298Z,3.27
2023-11-23T06:50:19.054Z,3.25
2023-11-23T06:51:21.112Z,3.26
2023-11-23T06:52:23.071Z,3.29
2023-11-23T06:53:24.838Z,3.33
2023-11-23T06:54:26.698Z,3.35
2023-11-23T06:55:28.744Z,3.34
2023-11-23T06:56:30.510Z,3.36
2023-11-23T06:57:32.424Z,3.37
2023-11-23T06:58:34.551Z,3.34
2023-11-23T06:59:37.331Z,3.32
2023-11-23T07:00:40.514Z,3.35
2023-11-23T07:01:42.503Z,3.38
2023-11-23T07:02:44.341Z,3.38
2023-11-23T07:03:46.807Z,3.36
2023-11-23T07:04:48.583Z,3.34
2023-11-23T07:05:51.093Z,3.31
2023-11-23T07:06:53.016Z,3.30
2023-11-23T07:07:55.166Z,3.23
2023-11-23T07:08:58.643Z,3.17
2023-11-23T07:10:00.392Z,3.15
2023-11-23T07:11:02.606Z,3.09
2023-11-23T07:12:04.641Z,3.07
2023-11-23T07:13:06.521Z,3.08
2023-11-23T07:14:08.533Z,3.01
2023-11-23T07:15:11.533Z,2.98
2023-11-23T07:16:14.153Z,2.97
2023-11-23T07:17:15.938Z,3.00
2023-11-23T07:18:19.522Z,3.04
2023-11-23T07:19:21.398Z,3.06
2023-11-23T07:20:23.742Z,3.08
2023-11-23T07:21:25.911Z,3.10
2023-11-23T07:22:27.718Z,3.13
2023-11-23T07:23:29.549Z,3.15
2023-11-23T07:24:31.308Z,3.12
2023-11-23T07:25:33.402Z,3.10
2023-11-23T07:26:35.403Z,3.09
2023-11-23T07:27:38.345Z,3.07
2023-11-23T07:28:40.215Z,3.06
2023-11-23T07:29:42.278Z,3.03
2023-11-23T07:30:44.558Z,2.99
2023-11-23T07:31:47.923Z,3.00
2023-11-23T07:32:49.827Z,3.02
2023-11-23T07:33:52.150Z,3.07
2023-11-23T07:34:54.193Z,3.12
2023-11-23T07:35:56.905Z,3.16
2023-11-23T07:36:58.651Z,3.19
2023-11-23T07:38:01.796Z,3.19
2023-11-23T07:39:04.280Z,3.21
2023-11-23T07:40:15.115Z,3.25
2023-11-23T07:41:19.397Z,3.26
2023-11-23T07:42:21.242Z,3.25
2023-11-23T07:43:23.089Z,3.25
2023-11-23T07:44:25.318Z,3.29
2023-11-23T07:45:27.191Z,3.30
2023-11-23T07:46:29.480Z,3.32
2023-11-23T07:47:31.347Z,3.34
2023-11-23T07:48:33.234Z,3.33
2023-11-23T07:49:35.053Z,3.29
2023-11-23T07:50:38.506Z,3.29
2023-11-23T07:51:40.820Z,3.29
2023-11-23T07:52:46.472Z,3.32
2023-11-23T07:53:48.876Z,3.34
2023-11-23T07:54:51.228Z,3.37
2023-11-23T07:55:53.188Z,3.39
2023-11-23T07:56:55.130Z,3.32
2023-11-23T07:57:57.475Z,3.30
2023-11-23T07:59:00.253Z,3.34
2023-11-23T08:00:02.282Z,3.39
2023-11-23T08:01:04.222Z,3.42
2023-11-23T08:02:06.268Z,3.45
2023-11-23T08:03:08.490Z,3.46
2023-11-23T08:04:12.980Z,3.49
2023-11-23T08:05:15.121Z,3.52
2023-11-23T08:06:18.064Z,3.54
2023-11-23T08:07:21.276Z,3.56
2023-11-23T08:08:23.121Z,3.59
2023-11-23T08:09:25.197Z,3.64
2023-11-23T08:10:26.990Z,3.66
2023-11-23T08:11:29.873Z,3.70
2023-11-23T08:12:33.661Z,3.72
2023-11-23T08:13:36.348Z,3.72
2023-11-23T08:14:40.733Z,3.68
2023-11-23T08:15:42.598Z,3.61
2023-11-23T08:16:44.831Z,3.60
2023-11-23T08:17:54.506Z,3.67
2023-11-23T08:19:06.367Z,3.73
2023-11-23T08:20:09.587Z,3.72
2023-11-23T08:21:13.152Z,3.64
2023-11-23T08:22:16.358Z,3.56
2023-11-23T08:23:18.167Z,3.53
2023-11-23T08:24:19.988Z,3.53
2023-11-23T08:25:21.744Z,3.59
2023-11-23T08:26:23.495Z,3.62
2023-11-23T08:27:25.546Z,3.67
2023-11-23T08:28:27.430Z,3.72
2023-11-23T08:29:31.317Z,3.77
2023-11-23T08:30:33.681Z,3.81
2023-11-23T08:31:35.539Z,3.83
2023-11-23T08:32:37.341Z,3.79
2023-11-23T08:33:39.178Z,3.73
2023-11-23T08:34:43.204Z,3.79
2023-11-23T08:35:46.605Z,3.76
2023-11-23T08:36:48.423Z,3.77
2023-11-23T08:37:50.152Z,3.85
2023-11-23T08:38:52.046Z,3.86
2023-11-23T08:39:53.915Z,3.83
2023-11-23T08:40:55.711Z,3.86
2023-11-23T08:41:57.400Z,3.89
2023-11-23T08:42:59.289Z,3.91
2023-11-23T08:44:05.552Z,3.95
2023-11-23T08:45:08.012Z,4.00
2023-11-23T08:46:09.908Z,4.04
2023-11-23T08:47:11.745Z,4.13
2023-11-23T08:48:15.101Z,4.16
2023-11-23T08:49:16.983Z,4.24
2023-11-23T08:50:19.228Z,4.27
2023-11-23T08:51:20.995Z,4.30
2023-11-23T08:52:23.182Z,4.31
2023-11-23T08:53:25.750Z,4.39
2023-11-23T08:54:27.596Z,4.46
2023-11-23T08:55:29.584Z,4.44
2023-11-23T08:56:31.833Z,4.30
2023-11-23T08:57:34.068Z,4.11
2023-11-23T08:58:35.794Z,4.03
2023-11-23T08:59:38.908Z,4.04
2023-11-23T09:00:42.994Z,4.10
2023-11-23T09:01:46.563Z,4.20
2023-11-23T09:02:51.750Z,4.33
2023-11-23T09:03:54.473Z,4.34
2023-11-23T09:04:57.428Z,4.30
2023-11-23T09:05:59.941Z,4.35
2023-11-23T09:07:02.280Z,4.44
2023-11-23T09:08:08.080Z,4.52
2023-11-23T09:09:09.855Z,4.48
2023-11-23T09:10:11.731Z,4.45
2023-11-23T09:11:13.707Z,4.40
2023-11-23T09:12:15.603Z,4.46
2023-11-23T09:13:17.539Z,4.49
2023-11-23T09:14:19.909Z,4.51
2023-11-23T09:15:24.067Z,4.53
2023-11-23T09:16:27.250Z,4.51
2023-11-23T09:17:28.987Z,4.54
2023-11-23T09:18:30.881Z,4.64
2023-11-23T09:19:33.465Z,4.77
2023-11-23T09:20:35.234Z,4.80
2023-11-23T09:21:37.328Z,4.90
2023-11-23T09:22:39.077Z,5.06
2023-11-23T09:23:41.336Z,5.16
2023-11-23T09:24:43.939Z,5.12
2023-11-23T09:25:45.838Z,5.12
2023-11-23T09:26:48.987Z,5.16
2023-11-23T09:27:51.677Z,5.26
2023-11-23T09:28:53.540Z,5.40
2023-11-23T09:29:56.211Z,5.47
2023-11-23T09:30:57.916Z,5.48
2023-11-23T09:32:00.416Z,5.43
2023-11-23T09:33:02.308Z,5.42
2023-11-23T09:34:04.971Z,5.52
2023-11-23T09:35:09.406Z,5.51
2023-11-23T09:36:13.151Z,5.41
2023-11-23T09:37:14.980Z,5.49
2023-11-23T09:38:16.786Z,5.57
2023-11-23T09:39:23.395Z,5.60
2023-11-23T09:40:27.461Z,5.59
2023-11-23T09:41:35.766Z,5.63
2023-11-23T09:42:38.791Z,5.78
2023-11-23T09:43:40.577Z,5.89
2023-11-23T09:44:43.087Z,5.86
2023-11-23T09:45:45.225Z,5.71
2023-11-23T09:46:47.940Z,5.62
2023-11-23T09:47:50.317Z,5.63
2023-11-23T09:48:52.661Z,5.64
2023-11-23T09:49:55.886Z,5.70
2023-11-23T09:50:58.071Z,5.77
2023-11-23T09:52:02.555Z,5.84
2023-11-23T09:53:04.525Z,5.92
2023-11-23T09:54:07.070Z,6.09
2023-11-23T09:55:10.244Z,6.27
2023-11-23T09:56:12.817Z,6.42
2023-11-23T09:57:14.684Z,6.42
2023-11-23T09:58:17.234Z,6.23
2023-11-23T09:59:19.024Z,6.05
2023-11-23T10:00:22.770Z,6.07
2023-11-23T10:01:28.760Z,6.21
2023-11-23T10:02:34.355Z,6.25
2023-11-23T10:03:36.367Z,6.21
2023-11-23T10:04:38.104Z,6.23
2023-11-23T10:05:40.713Z,6.38
2023-11-23T10:06:42.635Z,6.35
2023-11-23T10:07:45.160Z,6.45
2023-11-23T10:08:47.389Z,6.41
2023-11-23T10:09:49.437Z,6.45
2023-11-23T10:10:52.999Z,6.63
2023-11-23T10:11:57.976Z,6.73
2023-11-23T10:13:00.955Z,6.68
2023-11-23T10:14:02.735Z,6.78
2023-11-23T10:15:08.297Z,6.92
2023-11-23T10:16:12.659Z,7.04
2023-11-23T10:17:14.554Z,6.98
2023-11-23T10:18:16.425Z,6.94
2023-11-23T10:19:22.195Z,7.04
2023-11-23T10:20:23.996Z,7.12
2023-11-23T10:21:26.038Z,7.19
2023-11-23T10:22:27.825Z,7.15
2023-11-23T10:23:29.955Z,7.21
2023-11-23T10:24:32.242Z,7.20
2023-11-23T10:25:34.889Z,7.19
2023-11-23T10:26:39.446Z,7.09
2023-11-23T10:27:41.447Z,6.98
2023-11-23T10:28:43.596Z,6.99
2023-11-23T10:29:45.341Z,7.06
2023-11-23T10:30:47.200Z,7.09
2023-11-23T10:31:49.308Z,7.16
2023-11-23T10:32:52.210Z,7.29
2023-11-23T10:33:54.356Z,7.37
2023-11-23T10:34:57.908Z,7.49
2023-11-23T10:36:02.344Z,7.49
2023-11-23T10:37:06.204Z,7.46
2023-11-23T10:38:09.076Z,7.53
2023-11-23T10:39:14.059Z,7.57
2023-11-23T10:40:16.487Z,7.67
2023-11-23T10:41:18.683Z,7.75
2023-11-23T10:42:20.854Z,7.81
2023-11-23T10:43:23.131Z,7.84
2023-11-23T10:44:25.049Z,7.87
2023-11-23T10:45:29.128Z,7.88
2023-11-23T10:46:32.166Z,7.89
2023-11-23T10:47:36.760Z,7.83
2023-11-23T10:48:38.880Z,7.81
2023-11-23T10:49:43.758Z,7.87
2023-11-23T10:50:45.711Z,7.79
2023-11-23T10:51:48.017Z,7.85
2023-11-23T10:52:50.138Z,7.87
2023-11-23T10:53:51.976Z,7.85
2023-11-23T10:54:53.746Z,7.90
2023-11-23T10:55:58.622Z,7.92
2023-11-23T10:57:02.557Z,7.99
2023-11-23T10:58:10.271Z,8.05
2023-11-23T10:59:19.345Z,8.16
2023-11-23T11:00:26.215Z,8.28
2023-11-23T11:01:28.941Z,8.29
2023-11-23T11:02:30.941Z,8.28
2023-11-23T11:03:33.422Z,8.21
2023-11-23T11:04:35.715Z,8.15
2023-11-23T11:05:38.299Z,8.17
2023-11-23T11:06:40.926Z,8.02
2023-11-23T11:07:42.625Z,7.84
2023-11-23T11:08:51.768Z,7.85
2023-11-23T11:10:02.310Z,7.98
2023-11-23T11:11:08.962Z,8.07
2023-11-23T11:12:14.520Z,8.06
2023-11-23T11:13:16.982Z,7.98
2023-11-23T11:14:19.173Z,7.95
2023-11-23T11:15:22.759Z,8.02
2023-11-23T11:16:32.429Z,8.18
2023-11-23T11:17:38.151Z,8.28
2023-11-23T11:18:40.422Z,8.36
2023-11-23T11:19:49.206Z,8.48
2023-11-23T11:21:09.857Z,8.58
2023-11-23T11:22:15.624Z,8.71
2023-11-23T11:23:17.658Z,8.71
2023-11-23T11:24:23.051Z,8.75
2023-11-23T11:25:39.862Z,8.74
2023-11-23T11:26:44.319Z,8.80
2023-11-23T11:27:47.057Z,8.82
2023-11-23T11:28:58.936Z,8.78
2023-11-23T11:30:04.828Z,8.74
2023-11-23T11:31:07.612Z,8.76
2023-11-23T11:32:10.178Z,8.82
2023-11-23T11:33:15.875Z,8.86
2023-11-23T11:34:18.953Z,8.74
2023-11-23T11:35:21.956Z,8.60
2023-11-23T11:36:25.743Z,8.60
2023-11-23T11:37:28.828Z,8.68
2023-11-23T11:38:31.225Z,8.75
2023-11-23T11:39:34.073Z,8.82
2023-11-23T11:40:36.794Z,8.92
2023-11-23T11:42:42.282Z,9.05
2023-11-23T11:43:45.783Z,9.02
2023-11-23T11:44:47.726Z,9.02
2023-11-23T11:45:50.706Z,9.02
2023-11-23T11:46:53.572Z,9.01
2023-11-23T11:47:58.816Z,9.02
2023-11-23T11:49:01.837Z,9.00
2023-11-23T11:51:06.995Z,8.83
2023-11-23T11:52:13.902Z,8.79
2023-11-23T11:53:15.697Z,8.74
2023-11-23T11:54:19.400Z,8.70
2023-11-23T11:55:21.143Z,8.69
2023-11-23T11:56:25.762Z,8.70
2023-11-23T11:57:28.301Z,8.67
2023-11-23T11:58:30.053Z,8.68
2023-11-23T11:59:32.479Z,8.70
2023-11-23T12:00:35.963Z,8.73
2023-11-23T12:01:37.924Z,8.75
2023-11-23T12:02:40.776Z,8.80
2023-11-23T12:03:42.625Z,8.84
2023-11-23T12:04:44.639Z,8.87
2023-11-23T12:05:49.792Z,8.91
2023-11-23T12:06:51.553Z,8.93
2023-11-23T12:07:54.606Z,8.99
2023-11-23T12:08:56.385Z,9.04
2023-11-23T12:09:58.393Z,9.02
2023-11-23T12:11:00.241Z,9.00
2023-11-23T12:12:06.727Z,9.05
2023-11-23T12:13:15.925Z,9.07
2023-11-23T12:14:17.936Z,9.01
2023-11-23T12:15:20.712Z,9.04
2023-11-23T12:16:23.289Z,9.06
2023-11-23T12:17:25.162Z,9.07
2023-11-23T12:18:36.904Z,9.06
2023-11-23T12:19:39.418Z,8.97
2023-11-23T12:20:41.525Z,8.94
2023-11-23T12:21:43.482Z,8.94
2023-11-23T12:22:47.960Z,8.98
2023-11-23T12:23:49.798Z,8.94
2023-11-23T12:24:52.633Z,8.94
2023-11-23T12:25:55.966Z,8.89
2023-11-23T12:26:58.665Z,8.90
2023-11-23T12:28:00.725Z,8.92
2023-11-23T12:29:03.472Z,8.95
2023-11-23T12:30:06.296Z,8.98
2023-11-23T12:31:09.173Z,8.92
2023-11-23T12:32:11.639Z,8.87
2023-11-23T12:33:16.209Z,8.89
2023-11-23T12:34:17.993Z,8.97
2023-11-23T12:35:20.483Z,9.04
2023-11-23T12:36:22.393Z,9.07
2023-11-23T12:37:24.168Z,9.10
2023-11-23T12:38:25.882Z,9.09
2023-11-23T12:39:31.136Z,9.09
2023-11-23T12:40:33.439Z,9.12
2023-11-23T12:41:46.191Z,9.15
2023-11-23T12:42:54.923Z,9.19
2023-11-23T12:43:57.127Z,9.20
2023-11-23T12:44:58.871Z,9.19
2023-11-23T12:46:01.556Z,9.19
2023-11-23T12:47:03.509Z,9.12
2023-11-23T12:48:06.398Z,9.09
2023-11-23T12:49:08.414Z,9.08
2023-11-23T12:50:11.720Z,9.07
2023-11-23T12:51:14.390Z,9.07
2023-11-23T12:52:17.652Z,9.10
2023-11-23T12:53:19.794Z,9.14
2023-11-23T12:54:21.591Z,9.12
2023-11-23T12:55:23.396Z,9.11
2023-11-23T12:56:25.737Z,9.09
2023-11-23T12:57:28.623Z,9.09
2023-11-23T12:58:30.573Z,9.12
2023-11-23T12:59:32.390Z,9.12
2023-11-23T13:00:37.745Z,9.17
2023-11-23T13:01:40.718Z,9.25
2023-11-23T13:02:42.944Z,9.22
2023-11-23T13:03:45.124Z,9.21
2023-11-23T13:04:47.258Z,9.14
2023-11-23T13:05:51.207Z,9.15
2023-11-23T13:06:53.035Z,9.13
2023-11-23T13:07:55.560Z,9.13
2023-11-23T13:08:57.369Z,9.17
2023-11-23T13:09:59.366Z,9.19
2023-11-23T13:11:01.203Z,9.22
2023-11-23T13:12:05.405Z,9.21
2023-11-23T13:13:07.333Z,9.25
2023-11-23T13:14:09.712Z,9.15
2023-11-23T13:15:15.279Z,9.05
2023-11-23T13:16:24.435Z,9.12
2023-11-23T13:17:26.392Z,9.12
2023-11-23T13:18:44.381Z,9.17
2023-11-23T13:19:51.074Z,9.17
2023-11-23T13:20:52.986Z,9.22
2023-11-23T13:21:55.448Z,9.20
2023-11-23T13:22:57.298Z,9.18
2023-11-23T13:24:01.066Z,9.15
2023-11-23T13:25:04.742Z,9.15
2023-11-23T13:26:08.296Z,9.09
2023-11-23T13:27:10.292Z,9.00
2023-11-23T13:28:12.092Z,8.93
2023-11-23T13:29:14.221Z,8.82
2023-11-23T13:30:16.322Z,8.77
2023-11-23T13:31:18.489Z,8.64
2023-11-23T13:32:21.599Z,8.52
2023-11-23T13:33:25.004Z,8.45
2023-11-23T13:34:27.552Z,8.45
2023-11-23T13:35:33.494Z,8.42
2023-11-23T13:36:36.974Z,8.39
2023-11-23T13:37:39.230Z,8.37
2023-11-23T13:38:41.433Z,8.32
2023-11-23T13:39:43.362Z,8.30
2023-11-23T13:40:47.739Z,8.23
2023-11-23T13:41:52.456Z,8.17
2023-11-23T13:42:54.243Z,8.11
2023-11-23T13:43:58.872Z,8.08
2023-11-23T13:45:00.838Z,7.96
2023-11-23T13:46:02.841Z,7.90
2023-11-23T13:47:08.282Z,7.86
2023-11-23T13:48:12.229Z,7.84
2023-11-23T13:49:15.252Z,7.77
2023-11-23T13:50:18.586Z,7.71
2023-11-23T13:51:23.115Z,7.72
2023-11-23T13:52:25.771Z,7.73
2023-11-23T13:53:27.593Z,7.71
2023-11-23T13:54:30.811Z,7.71
2023-11-23T13:55:32.602Z,7.71
2023-11-23T13:56:34.673Z,7.69
2023-11-23T13:57:38.000Z,7.69